sensor_id;sensor_type;location;lat;lon;timestamp;P1;durP1;ratioP1;P2;durP2;ratioP2
32321;SDS011;61553;48.994;8.940;2023-02-11T00:00:57;49.83;;;23.83;;
32321;SDS011;61553;48.994;8.940;2023-02-11T00:03:23;53.53;;;22.43;;
32321;SDS011;61553;48.994;8.940;2023-02-11T00:05:56;47.90;;;22.17;;
32321;SDS011;61553;48.994;8.940;2023-02-11T00:08:25;51.80;;;19.60;;
32321;SDS011;61553;48.994;8.940;2023-02-11T00:10:52;42.97;;;18.47;;
32321;SDS011;61553;48.994;8.940;2023-02-11T00:13:19;42.20;;;17.77;;
32321;SDS011;61553;48.994;8.940;2023-02-11T00:15:44;41.07;;;18.23;;
32321;SDS011;61553;48.994;8.940;2023-02-11T00:18:10;44.60;;;18.50;;
32321;SDS011;61553;48.994;8.940;2023-02-11T00:20:37;43.50;;;18.63;;
32321;SDS011;61553;48.994;8.940;2023-02-11T00:23:03;41.57;;;17.83;;
32321;SDS011;61553;48.994;8.940;2023-02-11T00:25:29;44.70;;;19.70;;
32321;SDS011;61553;48.994;8.940;2023-02-11T00:27:55;43.87;;;20.23;;
32321;SDS011;61553;48.994;8.940;2023-02-11T00:30:20;42.40;;;20.03;;
32321;SDS011;61553;48.994;8.940;2023-02-11T00:32:46;47.47;;;19.73;;
32321;SDS011;61553;48.994;8.940;2023-02-11T00:35:12;49.93;;;21.60;;
32321;SDS011;61553;48.994;8.940;2023-02-11T00:37:37;50.67;;;22.40;;
32321;SDS011;61553;48.994;8.940;2023-02-11T00:40:03;48.37;;;20.77;;
32321;SDS011;61553;48.994;8.940;2023-02-11T00:42:29;42.87;;;20.93;;
32321;SDS011;61553;48.994;8.940;2023-02-11T00:44:55;49.93;;;21.90;;
32321;SDS011;61553;48.994;8.940;2023-02-11T00:47:20;49.60;;;20.87;;
32321;SDS011;61553;48.994;8.940;2023-02-11T00:49:46;44.40;;;20.03;;
32321;SDS011;61553;48.994;8.940;2023-02-11T00:52:12;47.33;;;20.77;;
32321;SDS011;61553;48.994;8.940;2023-02-11T00:54:37;44.53;;;19.27;;
32321;SDS011;61553;48.994;8.940;2023-02-11T00:57:03;42.10;;;18.77;;
32321;SDS011;61553;48.994;8.940;2023-02-11T00:59:28;35.67;;;16.63;;
32321;SDS011;61553;48.994;8.940;2023-02-11T01:01:54;39.63;;;16.70;;
32321;SDS011;61553;48.994;8.940;2023-02-11T01:04:20;39.07;;;17.70;;
32321;SDS011;61553;48.994;8.940;2023-02-11T01:06:46;42.60;;;17.97;;
32321;SDS011;61553;48.994;8.940;2023-02-11T01:09:11;38.50;;;16.73;;
32321;SDS011;61553;48.994;8.940;2023-02-11T01:11:37;36.40;;;15.90;;
32321;SDS011;61553;48.994;8.940;2023-02-11T01:14:03;34.07;;;15.80;;
32321;SDS011;61553;48.994;8.940;2023-02-11T01:16:28;38.73;;;16.03;;
32321;SDS011;61553;48.994;8.940;2023-02-11T01:18:54;38.63;;;18.53;;
32321;SDS011;61553;48.994;8.940;2023-02-11T01:21:19;37.33;;;17.07;;
32321;SDS011;61553;48.994;8.940;2023-02-11T01:23:45;36.43;;;17.40;;
32321;SDS011;61553;48.994;8.940;2023-02-11T01:26:11;38.87;;;17.10;;
32321;SDS011;61553;48.994;8.940;2023-02-11T01:28:37;41.80;;;17.57;;
32321;SDS011;61553;48.994;8.940;2023-02-11T01:31:02;55.33;;;27.00;;
32321;SDS011;61553;48.994;8.940;2023-02-11T01:33:28;48.13;;;22.63;;
32321;SDS011;61553;48.994;8.940;2023-02-11T01:35:54;47.37;;;20.30;;
32321;SDS011;61553;48.994;8.940;2023-02-11T01:38:21;46.40;;;19.27;;
32321;SDS011;61553;48.994;8.940;2023-02-11T01:40:49;49.27;;;22.00;;
32321;SDS011;61553;48.994;8.940;2023-02-11T01:43:20;52.55;;;21.05;;
32321;SDS011;61553;48.994;8.940;2023-02-11T01:48:20;41.72;;;17.10;;
32321;SDS011;61553;48.994;8.940;2023-02-11T01:51:00;36.10;;;17.47;;
32321;SDS011;61553;48.994;8.940;2023-02-11T01:53:33;35.23;;;16.60;;
32321;SDS011;61553;48.994;8.940;2023-02-11T01:56:18;44.30;;;17.77;;
32321;SDS011;61553;48.994;8.940;2023-02-11T01:59:05;41.53;;;17.80;;
32321;SDS011;61553;48.994;8.940;2023-02-11T02:01:36;37.60;;;17.23;;
32321;SDS011;61553;48.994;8.940;2023-02-11T02:04:04;38.40;;;16.47;;
32321;SDS011;61553;48.994;8.940;2023-02-11T02:06:33;36.97;;;16.83;;
32321;SDS011;61553;48.994;8.940;2023-02-11T02:09:05;35.73;;;15.37;;
32321;SDS011;61553;48.994;8.940;2023-02-11T02:11:58;35.57;;;15.60;;
32321;SDS011;61553;48.994;8.940;2023-02-11T02:14:24;43.43;;;16.20;;
32321;SDS011;61553;48.994;8.940;2023-02-11T02:16:50;39.93;;;17.67;;
32321;SDS011;61553;48.994;8.940;2023-02-11T02:41:35;43.07;;;17.90;;
32321;SDS011;61553;48.994;8.940;2023-02-11T02:44:03;37.67;;;16.87;;
32321;SDS011;61553;48.994;8.940;2023-02-11T02:46:32;34.53;;;16.67;;
32321;SDS011;61553;48.994;8.940;2023-02-11T02:48:58;33.50;;;15.83;;
32321;SDS011;61553;48.994;8.940;2023-02-11T03:10:13;40.53;;;16.73;;
32321;SDS011;61553;48.994;8.940;2023-02-11T03:12:43;42.83;;;17.80;;
32321;SDS011;61553;48.994;8.940;2023-02-11T03:15:11;37.10;;;16.87;;
32321;SDS011;61553;48.994;8.940;2023-02-11T03:17:40;43.13;;;18.70;;
32321;SDS011;61553;48.994;8.940;2023-02-11T03:20:09;42.73;;;19.33;;
32321;SDS011;61553;48.994;8.940;2023-02-11T03:22:41;38.97;;;18.00;;
32321;SDS011;61553;48.994;8.940;2023-02-11T03:25:14;44.70;;;18.37;;
32321;SDS011;61553;48.994;8.940;2023-02-11T03:27:42;39.07;;;17.80;;
32321;SDS011;61553;48.994;8.940;2023-02-11T03:30:24;40.00;;;17.80;;
32321;SDS011;61553;48.994;8.940;2023-02-11T03:33:02;43.25;;;19.58;;
32321;SDS011;61553;48.994;8.940;2023-02-11T03:35:43;45.05;;;18.90;;
32321;SDS011;61553;48.994;8.940;2023-02-11T03:38:21;36.70;;;18.47;;
32321;SDS011;61553;48.994;8.940;2023-02-11T03:40:59;42.90;;;19.10;;
32321;SDS011;61553;48.994;8.940;2023-02-11T03:43:32;40.87;;;19.43;;
32321;SDS011;61553;48.994;8.940;2023-02-11T03:46:02;42.47;;;19.47;;
32321;SDS011;61553;48.994;8.940;2023-02-11T03:48:33;43.45;;;19.38;;
32321;SDS011;61553;48.994;8.940;2023-02-11T03:51:06;51.13;;;20.27;;
32321;SDS011;61553;48.994;8.940;2023-02-11T03:53:34;44.63;;;19.80;;
32321;SDS011;61553;48.994;8.940;2023-02-11T03:56:03;47.00;;;21.13;;
32321;SDS011;61553;48.994;8.940;2023-02-11T03:58:32;47.60;;;21.55;;
32321;SDS011;61553;48.994;8.940;2023-02-11T04:00:58;50.47;;;23.45;;
32321;SDS011;61553;48.994;8.940;2023-02-11T04:03:26;57.70;;;26.17;;
32321;SDS011;61553;48.994;8.940;2023-02-11T04:05:52;62.75;;;26.63;;
32321;SDS011;61553;48.994;8.940;2023-02-11T04:08:18;75.57;;;31.58;;
32321;SDS011;61553;48.994;8.940;2023-02-11T04:10:44;76.80;;;32.65;;
32321;SDS011;61553;48.994;8.940;2023-02-11T04:13:10;96.03;;;42.67;;
32321;SDS011;61553;48.994;8.940;2023-02-11T04:15:36;80.78;;;37.92;;
32321;SDS011;61553;48.994;8.940;2023-02-11T04:18:01;60.72;;;27.42;;
32321;SDS011;61553;48.994;8.940;2023-02-11T04:20:27;85.65;;;33.03;;
32321;SDS011;61553;48.994;8.940;2023-02-11T04:22:53;76.13;;;31.88;;
32321;SDS011;61553;48.994;8.940;2023-02-11T04:25:19;67.88;;;30.65;;
32321;SDS011;61553;48.994;8.940;2023-02-11T04:27:45;61.55;;;27.27;;
32321;SDS011;61553;48.994;8.940;2023-02-11T04:30:11;54.47;;;26.17;;
32321;SDS011;61553;48.994;8.940;2023-02-11T04:32:37;56.65;;;25.90;;
32321;SDS011;61553;48.994;8.940;2023-02-11T04:35:02;56.20;;;25.95;;
32321;SDS011;61553;48.994;8.940;2023-02-11T04:37:28;60.00;;;27.95;;
32321;SDS011;61553;48.994;8.940;2023-02-11T04:39:54;60.88;;;28.08;;
32321;SDS011;61553;48.994;8.940;2023-02-11T04:42:20;45.45;;;23.15;;
32321;SDS011;61553;48.994;8.940;2023-02-11T04:44:45;38.72;;;19.98;;
32321;SDS011;61553;48.994;8.940;2023-02-11T04:47:11;41.83;;;19.73;;
32321;SDS011;61553;48.994;8.940;2023-02-11T04:49:39;40.38;;;19.45;;
32321;SDS011;61553;48.994;8.940;2023-02-11T04:52:05;39.72;;;20.08;;
32321;SDS011;61553;48.994;8.940;2023-02-11T04:54:30;41.38;;;20.38;;
32321;SDS011;61553;48.994;8.940;2023-02-11T04:56:56;40.80;;;20.02;;
32321;SDS011;61553;48.994;8.940;2023-02-11T04:59:21;38.35;;;18.30;;
32321;SDS011;61553;48.994;8.940;2023-02-11T05:01:47;43.58;;;19.17;;
32321;SDS011;61553;48.994;8.940;2023-02-11T05:04:13;47.55;;;20.42;;
32321;SDS011;61553;48.994;8.940;2023-02-11T05:06:39;42.75;;;20.63;;
32321;SDS011;61553;48.994;8.940;2023-02-11T05:09:05;39.95;;;20.83;;
32321;SDS011;61553;48.994;8.940;2023-02-11T05:11:31;48.08;;;22.38;;
32321;SDS011;61553;48.994;8.940;2023-02-11T05:13:56;51.03;;;22.77;;
32321;SDS011;61553;48.994;8.940;2023-02-11T05:16:22;51.47;;;22.27;;
32321;SDS011;61553;48.994;8.940;2023-02-11T05:18:48;50.90;;;24.52;;
32321;SDS011;61553;48.994;8.940;2023-02-11T05:21:15;48.05;;;22.30;;
32321;SDS011;61553;48.994;8.940;2023-02-11T05:23:42;49.78;;;22.17;;
32321;SDS011;61553;48.994;8.940;2023-02-11T05:26:09;47.80;;;22.65;;
32321;SDS011;61553;48.994;8.940;2023-02-11T05:28:35;48.30;;;22.65;;
32321;SDS011;61553;48.994;8.940;2023-02-11T05:31:01;62.35;;;27.98;;
32321;SDS011;61553;48.994;8.940;2023-02-11T05:33:27;47.78;;;22.98;;
32321;SDS011;61553;48.994;8.940;2023-02-11T05:35:59;47.10;;;23.48;;
32321;SDS011;61553;48.994;8.940;2023-02-11T05:38:25;48.92;;;24.05;;
32321;SDS011;61553;48.994;8.940;2023-02-11T05:40:51;52.10;;;23.80;;
32321;SDS011;61553;48.994;8.940;2023-02-11T05:43:17;56.40;;;23.92;;
32321;SDS011;61553;48.994;8.940;2023-02-11T05:45:43;47.72;;;23.17;;
32321;SDS011;61553;48.994;8.940;2023-02-11T05:48:08;46.10;;;21.88;;
32321;SDS011;61553;48.994;8.940;2023-02-11T05:50:34;62.63;;;26.40;;
32321;SDS011;61553;48.994;8.940;2023-02-11T05:53:00;58.30;;;30.10;;
32321;SDS011;61553;48.994;8.940;2023-02-11T05:55:25;54.05;;;24.15;;
32321;SDS011;61553;48.994;8.940;2023-02-11T05:57:51;118.22;;;48.75;;
32321;SDS011;61553;48.994;8.940;2023-02-11T06:00:17;334.77;;;129.10;;
32321;SDS011;61553;48.994;8.940;2023-02-11T06:02:43;265.67;;;100.28;;
32321;SDS011;61553;48.994;8.940;2023-02-11T06:05:08;105.32;;;45.85;;
32321;SDS011;61553;48.994;8.940;2023-02-11T06:07:34;64.00;;;30.23;;
32321;SDS011;61553;48.994;8.940;2023-02-11T06:10:00;55.63;;;25.90;;
32321;SDS011;61553;48.994;8.940;2023-02-11T06:12:25;45.17;;;22.80;;
32321;SDS011;61553;48.994;8.940;2023-02-11T06:14:51;45.67;;;23.27;;
32321;SDS011;61553;48.994;8.940;2023-02-11T06:17:17;48.88;;;21.65;;
32321;SDS011;61553;48.994;8.940;2023-02-11T06:19:43;46.78;;;22.05;;
32321;SDS011;61553;48.994;8.940;2023-02-11T06:22:08;42.00;;;21.25;;
32321;SDS011;61553;48.994;8.940;2023-02-11T06:24:34;45.55;;;21.33;;
32321;SDS011;61553;48.994;8.940;2023-02-11T06:27:02;68.45;;;31.88;;
32321;SDS011;61553;48.994;8.940;2023-02-11T06:29:28;90.97;;;38.20;;
32321;SDS011;61553;48.994;8.940;2023-02-11T06:31:55;62.70;;;29.83;;
32321;SDS011;61553;48.994;8.940;2023-02-11T06:34:20;48.30;;;24.00;;
32321;SDS011;61553;48.994;8.940;2023-02-11T06:36:46;45.58;;;23.23;;
32321;SDS011;61553;48.994;8.940;2023-02-11T06:39:12;48.47;;;22.73;;
32321;SDS011;61553;48.994;8.940;2023-02-11T06:41:38;43.22;;;21.42;;
32321;SDS011;61553;48.994;8.940;2023-02-11T06:44:04;36.38;;;19.27;;
32321;SDS011;61553;48.994;8.940;2023-02-11T06:46:30;39.38;;;20.52;;
32321;SDS011;61553;48.994;8.940;2023-02-11T06:48:56;38.00;;;21.88;;
32321;SDS011;61553;48.994;8.940;2023-02-11T06:51:21;44.42;;;21.58;;
32321;SDS011;61553;48.994;8.940;2023-02-11T06:53:47;46.40;;;25.33;;
32321;SDS011;61553;48.994;8.940;2023-02-11T06:56:17;53.60;;;31.50;;
32321;SDS011;61553;48.994;8.940;2023-02-11T06:58:44;59.53;;;31.42;;
32321;SDS011;61553;48.994;8.940;2023-02-11T07:01:11;55.75;;;26.35;;
32321;SDS011;61553;48.994;8.940;2023-02-11T07:03:40;54.55;;;29.02;;
32321;SDS011;61553;48.994;8.940;2023-02-11T07:06:09;55.90;;;25.90;;
32321;SDS011;61553;48.994;8.940;2023-02-11T07:08:36;51.55;;;25.38;;
32321;SDS011;61553;48.994;8.940;2023-02-11T07:11:21;53.90;;;25.75;;
32321;SDS011;61553;48.994;8.940;2023-02-11T07:13:50;47.08;;;23.38;;
32321;SDS011;61553;48.994;8.940;2023-02-11T07:16:17;53.92;;;25.35;;
32321;SDS011;61553;48.994;8.940;2023-02-11T07:18:43;45.42;;;23.10;;
32321;SDS011;61553;48.994;8.940;2023-02-11T07:21:11;48.03;;;23.50;;
32321;SDS011;61553;48.994;8.940;2023-02-11T07:23:38;50.25;;;23.55;;
32321;SDS011;61553;48.994;8.940;2023-02-11T07:26:05;54.45;;;24.70;;
32321;SDS011;61553;48.994;8.940;2023-02-11T07:28:33;48.17;;;23.27;;
32321;SDS011;61553;48.994;8.940;2023-02-11T07:31:07;39.85;;;21.48;;
32321;SDS011;61553;48.994;8.940;2023-02-11T07:33:40;45.53;;;23.10;;
32321;SDS011;61553;48.994;8.940;2023-02-11T07:36:07;44.92;;;22.40;;
32321;SDS011;61553;48.994;8.940;2023-02-11T07:38:35;47.22;;;25.08;;
32321;SDS011;61553;48.994;8.940;2023-02-11T07:41:05;56.97;;;26.13;;
32321;SDS011;61553;48.994;8.940;2023-02-11T07:43:33;55.60;;;27.75;;
32321;SDS011;61553;48.994;8.940;2023-02-11T07:46:08;50.88;;;27.15;;
32321;SDS011;61553;48.994;8.940;2023-02-11T07:48:41;50.00;;;27.20;;
32321;SDS011;61553;48.994;8.940;2023-02-11T07:51:11;51.88;;;27.75;;
32321;SDS011;61553;48.994;8.940;2023-02-11T07:53:42;42.05;;;24.48;;
32321;SDS011;61553;48.994;8.940;2023-02-11T07:56:08;49.28;;;24.23;;
32321;SDS011;61553;48.994;8.940;2023-02-11T07:58:36;45.20;;;23.83;;
32321;SDS011;61553;48.994;8.940;2023-02-11T08:01:04;47.17;;;22.65;;
32321;SDS011;61553;48.994;8.940;2023-02-11T08:03:31;44.78;;;25.67;;
32321;SDS011;61553;48.994;8.940;2023-02-11T08:06:02;43.45;;;22.63;;
32321;SDS011;61553;48.994;8.940;2023-02-11T08:08:32;44.90;;;21.92;;
32321;SDS011;61553;48.994;8.940;2023-02-11T08:10:58;47.35;;;23.17;;
32321;SDS011;61553;48.994;8.940;2023-02-11T08:13:29;66.35;;;32.83;;
32321;SDS011;61553;48.994;8.940;2023-02-11T08:15:56;45.70;;;24.40;;
32321;SDS011;61553;48.994;8.940;2023-02-11T08:18:21;36.90;;;20.25;;
32321;SDS011;61553;48.994;8.940;2023-02-11T08:20:47;37.08;;;21.15;;
32321;SDS011;61553;48.994;8.940;2023-02-11T08:23:13;37.67;;;20.20;;
32321;SDS011;61553;48.994;8.940;2023-02-11T08:25:38;36.25;;;20.42;;
32321;SDS011;61553;48.994;8.940;2023-02-11T08:28:04;36.92;;;19.58;;
32321;SDS011;61553;48.994;8.940;2023-02-11T08:30:30;33.85;;;19.08;;
32321;SDS011;61553;48.994;8.940;2023-02-11T08:32:55;36.00;;;19.30;;
32321;SDS011;61553;48.994;8.940;2023-02-11T08:35:21;35.83;;;18.60;;
32321;SDS011;61553;48.994;8.940;2023-02-11T08:37:46;30.30;;;18.63;;
32321;SDS011;61553;48.994;8.940;2023-02-11T08:40:12;34.47;;;19.73;;
32321;SDS011;61553;48.994;8.940;2023-02-11T08:42:38;34.13;;;18.65;;
32321;SDS011;61553;48.994;8.940;2023-02-11T08:45:04;35.72;;;20.98;;
32321;SDS011;61553;48.994;8.940;2023-02-11T08:47:30;31.30;;;18.95;;
32321;SDS011;61553;48.994;8.940;2023-02-11T08:49:55;37.90;;;22.05;;
32321;SDS011;61553;48.994;8.940;2023-02-11T08:52:21;32.42;;;21.38;;
32321;SDS011;61553;48.994;8.940;2023-02-11T08:54:47;35.63;;;20.83;;
32321;SDS011;61553;48.994;8.940;2023-02-11T08:57:12;35.75;;;21.80;;
32321;SDS011;61553;48.994;8.940;2023-02-11T08:59:38;35.17;;;21.30;;
32321;SDS011;61553;48.994;8.940;2023-02-11T09:02:04;34.42;;;22.98;;
32321;SDS011;61553;48.994;8.940;2023-02-11T09:04:31;42.72;;;23.20;;
32321;SDS011;61553;48.994;8.940;2023-02-11T09:06:57;32.53;;;19.85;;
32321;SDS011;61553;48.994;8.940;2023-02-11T09:09:22;32.63;;;19.02;;
32321;SDS011;61553;48.994;8.940;2023-02-11T09:11:48;36.83;;;19.90;;
32321;SDS011;61553;48.994;8.940;2023-02-11T09:14:15;32.38;;;18.85;;
32321;SDS011;61553;48.994;8.940;2023-02-11T09:16:43;30.92;;;17.23;;
32321;SDS011;61553;48.994;8.940;2023-02-11T09:19:09;32.55;;;15.43;;
32321;SDS011;61553;48.994;8.940;2023-02-11T09:21:34;27.65;;;15.68;;
32321;SDS011;61553;48.994;8.940;2023-02-11T09:24:00;35.30;;;19.98;;
32321;SDS011;61553;48.994;8.940;2023-02-11T09:26:27;31.95;;;18.00;;
32321;SDS011;61553;48.994;8.940;2023-02-11T09:28:55;25.20;;;15.52;;
32321;SDS011;61553;48.994;8.940;2023-02-11T09:31:22;18.30;;;11.68;;
32321;SDS011;61553;48.994;8.940;2023-02-11T09:33:51;19.33;;;11.30;;
32321;SDS011;61553;48.994;8.940;2023-02-11T09:36:22;21.25;;;13.77;;
32321;SDS011;61553;48.994;8.940;2023-02-11T09:38:50;18.87;;;12.10;;
32321;SDS011;61553;48.994;8.940;2023-02-11T09:43:45;22.60;;;14.55;;
32321;SDS011;61553;48.994;8.940;2023-02-11T09:46:14;19.27;;;12.70;;
32321;SDS011;61553;48.994;8.940;2023-02-11T09:48:42;25.00;;;15.40;;
32321;SDS011;61553;48.994;8.940;2023-02-11T09:51:24;25.00;;;14.80;;
32321;SDS011;61553;48.994;8.940;2023-02-11T09:56:18;10.30;;;6.35;;
32321;SDS011;61553;48.994;8.940;2023-02-11T09:58:43;12.52;;;7.03;;
32321;SDS011;61553;48.994;8.940;2023-02-11T10:04:00;14.68;;;6.57;;
32321;SDS011;61553;48.994;8.940;2023-02-11T10:11:35;14.52;;;7.60;;
32321;SDS011;61553;48.994;8.940;2023-02-11T10:17:11;11.38;;;7.40;;
32321;SDS011;61553;48.994;8.940;2023-02-11T10:19:49;12.63;;;7.53;;
32321;SDS011;61553;48.994;8.940;2023-02-11T10:22:26;14.73;;;8.80;;
32321;SDS011;61553;48.994;8.940;2023-02-11T10:24:57;17.23;;;9.15;;
32321;SDS011;61553;48.994;8.940;2023-02-11T10:27:31;13.88;;;8.38;;
32321;SDS011;61553;48.994;8.940;2023-02-11T10:29:59;15.20;;;8.32;;
32321;SDS011;61553;48.994;8.940;2023-02-11T10:33:01;15.05;;;8.35;;
32321;SDS011;61553;48.994;8.940;2023-02-11T10:35:39;14.20;;;8.82;;
32321;SDS011;61553;48.994;8.940;2023-02-11T10:38:07;18.23;;;9.02;;
32321;SDS011;61553;48.994;8.940;2023-02-11T10:40:34;13.57;;;9.02;;
32321;SDS011;61553;48.994;8.940;2023-02-11T10:43:03;12.57;;;8.30;;
32321;SDS011;61553;48.994;8.940;2023-02-11T10:45:34;16.27;;;8.98;;
32321;SDS011;61553;48.994;8.940;2023-02-11T10:48:03;16.90;;;9.45;;
32321;SDS011;61553;48.994;8.940;2023-02-11T10:50:31;26.92;;;10.30;;
32321;SDS011;61553;48.994;8.940;2023-02-11T10:55:54;15.45;;;8.95;;
32321;SDS011;61553;48.994;8.940;2023-02-11T10:58:30;17.27;;;9.85;;
32321;SDS011;61553;48.994;8.940;2023-02-11T11:01:00;16.95;;;9.27;;
32321;SDS011;61553;48.994;8.940;2023-02-11T11:03:27;18.35;;;9.50;;
32321;SDS011;61553;48.994;8.940;2023-02-11T11:06:03;16.35;;;9.10;;
32321;SDS011;61553;48.994;8.940;2023-02-11T11:08:41;16.95;;;10.10;;
32321;SDS011;61553;48.994;8.940;2023-02-11T11:11:12;18.38;;;10.93;;
32321;SDS011;61553;48.994;8.940;2023-02-11T11:24:04;20.67;;;10.32;;
32321;SDS011;61553;48.994;8.940;2023-02-11T11:26:43;18.98;;;10.45;;
32321;SDS011;61553;48.994;8.940;2023-02-11T11:29:25;19.50;;;10.43;;
32321;SDS011;61553;48.994;8.940;2023-02-11T11:32:01;21.20;;;11.07;;
32321;SDS011;61553;48.994;8.940;2023-02-11T11:34:43;18.45;;;10.18;;
32321;SDS011;61553;48.994;8.940;2023-02-11T11:42:29;19.08;;;10.50;;
32321;SDS011;61553;48.994;8.940;2023-02-11T11:44:58;17.80;;;10.48;;
32321;SDS011;61553;48.994;8.940;2023-02-11T11:52:58;17.67;;;9.75;;
32321;SDS011;61553;48.994;8.940;2023-02-11T11:55:45;20.60;;;10.93;;
32321;SDS011;61553;48.994;8.940;2023-02-11T11:58:18;18.92;;;12.02;;
32321;SDS011;61553;48.994;8.940;2023-02-11T12:03:41;22.70;;;12.90;;
32321;SDS011;61553;48.994;8.940;2023-02-11T12:07:16;21.10;;;11.15;;
32321;SDS011;61553;48.994;8.940;2023-02-11T12:20:18;19.58;;;11.50;;
32321;SDS011;61553;48.994;8.940;2023-02-11T12:25:40;24.40;;;13.63;;
32321;SDS011;61553;48.994;8.940;2023-02-11T12:31:54;19.85;;;11.55;;
32321;SDS011;61553;48.994;8.940;2023-02-11T12:42:04;19.88;;;11.02;;
32321;SDS011;61553;48.994;8.940;2023-02-11T12:48:04;23.70;;;13.77;;
32321;SDS011;61553;48.994;8.940;2023-02-11T12:59:36;22.35;;;12.32;;
32321;SDS011;61553;48.994;8.940;2023-02-11T13:02:03;20.60;;;11.88;;
32321;SDS011;61553;48.994;8.940;2023-02-11T13:04:40;21.48;;;11.60;;
32321;SDS011;61553;48.994;8.940;2023-02-11T13:07:56;20.15;;;11.40;;
32321;SDS011;61553;48.994;8.940;2023-02-11T13:10:14;20.85;;;10.70;;
32321;SDS011;61553;48.994;8.940;2023-02-11T13:12:41;23.58;;;12.30;;
32321;SDS011;61553;48.994;8.940;2023-02-11T13:15:28;20.50;;;11.75;;
32321;SDS011;61553;48.994;8.940;2023-02-11T13:20:50;20.70;;;10.45;;
32321;SDS011;61553;48.994;8.940;2023-02-11T13:26:25;19.63;;;12.25;;
32321;SDS011;61553;48.994;8.940;2023-02-11T13:28:56;19.23;;;10.93;;
32321;SDS011;61553;48.994;8.940;2023-02-11T13:31:35;18.35;;;10.40;;
32321;SDS011;61553;48.994;8.940;2023-02-11T13:34:01;22.63;;;13.05;;
32321;SDS011;61553;48.994;8.940;2023-02-11T13:36:28;22.20;;;12.38;;
32321;SDS011;61553;48.994;8.940;2023-02-11T13:39:00;24.92;;;13.38;;
32321;SDS011;61553;48.994;8.940;2023-02-11T13:44:18;20.85;;;11.98;;
32321;SDS011;61553;48.994;8.940;2023-02-11T13:47:00;21.65;;;11.82;;
32321;SDS011;61553;48.994;8.940;2023-02-11T13:52:00;22.00;;;13.55;;
32321;SDS011;61553;48.994;8.940;2023-02-11T13:54:30;29.20;;;14.07;;
32321;SDS011;61553;48.994;8.940;2023-02-11T13:57:20;27.60;;;14.27;;
32321;SDS011;61553;48.994;8.940;2023-02-11T13:59:53;20.42;;;11.85;;
32321;SDS011;61553;48.994;8.940;2023-02-11T14:03:16;24.00;;;12.23;;
32321;SDS011;61553;48.994;8.940;2023-02-11T14:11:47;23.77;;;12.43;;
32321;SDS011;61553;48.994;8.940;2023-02-11T14:22:14;22.33;;;12.85;;
32321;SDS011;61553;48.994;8.940;2023-02-11T14:24:54;22.45;;;12.75;;
32321;SDS011;61553;48.994;8.940;2023-02-11T14:27:26;24.83;;;13.88;;
32321;SDS011;61553;48.994;8.940;2023-02-11T14:32:55;24.15;;;12.85;;
32321;SDS011;61553;48.994;8.940;2023-02-11T14:35:41;20.98;;;13.27;;
32321;SDS011;61553;48.994;8.940;2023-02-11T14:43:51;21.80;;;12.93;;
32321;SDS011;61553;48.994;8.940;2023-02-11T14:46:22;22.73;;;13.23;;
32321;SDS011;61553;48.994;8.940;2023-02-11T14:48:50;20.20;;;13.68;;
32321;SDS011;61553;48.994;8.940;2023-02-11T14:51:18;24.70;;;14.95;;
32321;SDS011;61553;48.994;8.940;2023-02-11T14:53:50;21.95;;;13.15;;
32321;SDS011;61553;48.994;8.940;2023-02-11T14:56:22;26.08;;;14.73;;
32321;SDS011;61553;48.994;8.940;2023-02-11T14:58:50;21.40;;;13.50;;
32321;SDS011;61553;48.994;8.940;2023-02-11T15:01:33;28.40;;;14.50;;
32321;SDS011;61553;48.994;8.940;2023-02-11T15:04:00;23.55;;;14.43;;
32321;SDS011;61553;48.994;8.940;2023-02-11T15:11:30;22.77;;;14.57;;
32321;SDS011;61553;48.994;8.940;2023-02-11T15:14:05;54.35;;;28.00;;
32321;SDS011;61553;48.994;8.940;2023-02-11T15:16:33;31.75;;;17.58;;
32321;SDS011;61553;48.994;8.940;2023-02-11T15:19:04;22.63;;;14.13;;
32321;SDS011;61553;48.994;8.940;2023-02-11T15:21:32;26.63;;;14.68;;
32321;SDS011;61553;48.994;8.940;2023-02-11T15:24:21;23.85;;;13.48;;
32321;SDS011;61553;48.994;8.940;2023-02-11T15:29:49;31.40;;;16.80;;
32321;SDS011;61553;48.994;8.940;2023-02-11T15:34:49;46.63;;;22.70;;
32321;SDS011;61553;48.994;8.940;2023-02-11T15:37:20;29.52;;;16.95;;
32321;SDS011;61553;48.994;8.940;2023-02-11T15:39:51;29.25;;;17.98;;
32321;SDS011;61553;48.994;8.940;2023-02-11T15:44:49;23.77;;;14.80;;
32321;SDS011;61553;48.994;8.940;2023-02-11T15:47:59;25.88;;;14.80;;
32321;SDS011;61553;48.994;8.940;2023-02-11T15:50:33;22.45;;;13.82;;
32321;SDS011;61553;48.994;8.940;2023-02-11T15:53:11;25.65;;;14.90;;
32321;SDS011;61553;48.994;8.940;2023-02-11T15:55:39;25.52;;;14.18;;
32321;SDS011;61553;48.994;8.940;2023-02-11T15:58:07;27.08;;;14.80;;
32321;SDS011;61553;48.994;8.940;2023-02-11T16:00:35;27.67;;;16.75;;
32321;SDS011;61553;48.994;8.940;2023-02-11T16:03:02;28.30;;;16.50;;
32321;SDS011;61553;48.994;8.940;2023-02-11T16:05:30;62.15;;;31.17;;
32321;SDS011;61553;48.994;8.940;2023-02-11T16:07:58;54.20;;;27.27;;
32321;SDS011;61553;48.994;8.940;2023-02-11T16:10:27;27.95;;;17.92;;
32321;SDS011;61553;48.994;8.940;2023-02-11T16:13:02;31.23;;;17.38;;
32321;SDS011;61553;48.994;8.940;2023-02-11T16:18:03;38.47;;;20.75;;
32321;SDS011;61553;48.994;8.940;2023-02-11T16:20:57;46.78;;;23.30;;
32321;SDS011;61553;48.994;8.940;2023-02-11T16:23:25;39.83;;;20.90;;
32321;SDS011;61553;48.994;8.940;2023-02-11T16:26:39;33.58;;;18.75;;
32321;SDS011;61553;48.994;8.940;2023-02-11T16:28:45;28.75;;;16.25;;
32321;SDS011;61553;48.994;8.940;2023-02-11T16:31:10;33.22;;;17.33;;
32321;SDS011;61553;48.994;8.940;2023-02-11T16:33:37;44.30;;;24.10;;
32321;SDS011;61553;48.994;8.940;2023-02-11T16:36:10;43.75;;;27.80;;
32321;SDS011;61553;48.994;8.940;2023-02-11T16:38:37;32.45;;;21.00;;
32321;SDS011;61553;48.994;8.940;2023-02-11T16:41:03;31.73;;;18.95;;
32321;SDS011;61553;48.994;8.940;2023-02-11T16:43:28;31.23;;;17.48;;
32321;SDS011;61553;48.994;8.940;2023-02-11T16:45:54;28.20;;;17.45;;
32321;SDS011;61553;48.994;8.940;2023-02-11T16:48:21;46.35;;;24.73;;
32321;SDS011;61553;48.994;8.940;2023-02-11T16:50:47;186.32;;;96.63;;
32321;SDS011;61553;48.994;8.940;2023-02-11T16:53:18;90.90;;;52.25;;
32321;SDS011;61553;48.994;8.940;2023-02-11T16:55:47;43.50;;;26.30;;
32321;SDS011;61553;48.994;8.940;2023-02-11T16:58:13;42.90;;;24.75;;
32321;SDS011;61553;48.994;8.940;2023-02-11T17:00:39;33.45;;;20.17;;
32321;SDS011;61553;48.994;8.940;2023-02-11T17:03:09;30.33;;;20.02;;
32321;SDS011;61553;48.994;8.940;2023-02-11T17:05:42;32.33;;;18.60;;
32321;SDS011;61553;48.994;8.940;2023-02-11T17:08:09;34.15;;;20.63;;
32321;SDS011;61553;48.994;8.940;2023-02-11T17:10:35;32.58;;;20.70;;
32321;SDS011;61553;48.994;8.940;2023-02-11T17:13:01;29.65;;;19.80;;
32321;SDS011;61553;48.994;8.940;2023-02-11T17:15:28;32.22;;;20.67;;
32321;SDS011;61553;48.994;8.940;2023-02-11T17:17:54;28.17;;;17.92;;
32321;SDS011;61553;48.994;8.940;2023-02-11T17:20:20;33.25;;;18.52;;
32321;SDS011;61553;48.994;8.940;2023-02-11T17:22:46;28.42;;;17.75;;
32321;SDS011;61553;48.994;8.940;2023-02-11T17:25:12;30.65;;;18.17;;
32321;SDS011;61553;48.994;8.940;2023-02-11T17:27:37;28.17;;;17.67;;